Time;durP1;ratioP1;P1;durP2;ratioP2;P2;SDS_P1;SDS_P2;PMS_P1;PMS_P2;Temp;Humidity;BMP_temperature;BMP_pressure;BME280_temperature;BME280_humidity;BME280_pressure;Samples;Min_cycle;Max_cycle;Signal;HPM_P1;HPM_P2
2021/05/26 00:00:35;;;;;;;3.50;2.97;;;9.20;99.90;;;;;;5068930;28;20240;-46
2021/05/26 00:03:01;;;;;;;3.33;3.03;;;9.20;99.90;;;;;;5087393;28;20259;-48
2021/05/26 00:05:29;;;;;;;3.70;3.07;;;9.20;99.90;;;;;;5085299;28;20186;-46
2021/05/26 00:07:55;;;;;;;3.53;3.23;;;9.20;99.90;;;;;;5087244;28;20202;-45
2021/05/26 00:10:21;;;;;;;3.37;3.17;;;9.20;99.90;;;;;;5085752;28;20202;-45
2021/05/26 00:12:47;;;;;;;3.67;3.37;;;9.20;99.90;;;;;;5085578;28;20560;-45
2021/05/26 00:15:15;;;;;;;3.20;2.90;;;9.20;99.90;;;;;;5067784;28;20260;-45
2021/05/26 00:17:41;;;;;;;3.47;3.13;;;9.20;99.90;;;;;;5080541;28;20246;-45
2021/05/26 00:20:08;;;;;;;5.20;3.30;;;9.20;99.90;;;;;;5088200;28;20249;-46
2021/05/26 00:22:35;;;;;;;2.83;2.63;;;9.20;99.90;;;;;;5083440;28;20290;-45
2021/05/26 00:25:01;;;;;;;3.33;3.13;;;9.30;99.90;;;;;;5088888;28;20194;-47
2021/05/26 00:27:27;;;;;;;3.40;2.93;;;9.30;99.90;;;;;;5084952;28;20847;-47
2021/05/26 00:29:53;;;;;;;3.73;3.20;;;9.20;99.90;;;;;;5087783;28;20254;-49
2021/05/26 00:32:20;;;;;;;2.97;2.77;;;9.30;99.90;;;;;;5074071;28;20739;-49
2021/05/26 00:34:46;;;;;;;3.07;2.73;;;9.30;99.90;;;;;;5086334;28;20209;-49
2021/05/26 00:37:12;;;;;;;3.30;3.00;;;9.30;99.90;;;;;;5085936;28;20213;-49
2021/05/26 00:39:39;;;;;;;2.80;2.60;;;9.30;99.90;;;;;;5084805;28;20178;-48
2021/05/26 00:42:06;;;;;;;3.23;2.60;;;9.30;99.90;;;;;;5089135;28;20277;-50
2021/05/26 00:44:32;;;;;;;2.63;2.43;;;9.30;99.90;;;;;;5084359;28;20175;-49
2021/05/26 00:46:58;;;;;;;2.93;2.73;;;9.30;99.90;;;;;;5076295;28;20218;-50
2021/05/26 00:49:25;;;;;;;2.90;2.70;;;9.30;99.90;;;;;;5085383;28;20198;-48
2021/05/26 00:51:51;;;;;;;3.40;3.17;;;9.30;99.90;;;;;;5087726;28;20232;-46
2021/05/26 00:54:18;;;;;;;6.23;2.97;;;9.30;99.90;;;;;;5087601;28;20210;-47
2021/05/26 00:56:44;;;;;;;3.30;3.10;;;9.30;99.90;;;;;;5086903;28;20214;-45
2021/05/26 00:59:11;;;;;;;3.47;3.27;;;9.30;99.90;;;;;;5086857;28;20228;-49
2021/05/26 01:01:37;;;;;;;3.63;3.33;;;9.30;99.90;;;;;;5086146;28;20238;-48
2021/05/26 01:04:05;;;;;;;3.50;3.20;;;9.30;99.90;;;;;;5074552;28;20221;-49
2021/05/26 01:06:32;;;;;;;3.77;3.37;;;9.40;99.90;;;;;;5084638;28;20232;-47
2021/05/26 01:08:58;;;;;;;4.13;3.73;;;9.40;99.90;;;;;;5081723;28;20212;-49
2021/05/26 01:11:24;;;;;;;3.80;3.50;;;9.40;99.90;;;;;;5083592;28;20725;-45
2021/05/26 01:13:51;;;;;;;4.33;3.93;;;9.40;99.90;;;;;;5085632;28;20728;-45
2021/05/26 01:16:17;;;;;;;4.13;3.73;;;9.40;99.90;;;;;;5083745;28;20702;-45
2021/05/26 01:18:43;;;;;;;5.07;4.67;;;9.40;99.90;;;;;;5070419;28;23565;-45
2021/05/26 01:21:15;;;;;;;5.00;4.60;;;9.40;99.90;;;;;;5084452;28;20189;-45
2021/05/26 01:23:42;;;;;;;5.00;4.50;;;9.40;99.90;;;;;;5080616;28;20964;-47
2021/05/26 01:26:10;;;;;;;5.73;5.23;;;9.40;99.90;;;;;;5087374;28;20220;-45
2021/05/26 01:28:38;;;;;;;5.30;4.90;;;9.40;99.90;;;;;;5083139;28;20861;-46
2021/05/26 01:31:09;;;;;;;5.20;4.70;;;9.40;99.90;;;;;;5085778;28;20284;-49
2021/05/26 01:33:37;;;;;;;4.73;4.33;;;9.40;99.90;;;;;;5083616;28;20241;-48
2021/05/26 01:36:11;;;;;;;5.47;5.00;;;9.40;99.90;;;;;;5071926;28;20220;-46
2021/05/26 01:38:38;;;;;;;6.13;4.70;;;9.40;99.90;;;;;;5083079;28;20181;-44
2021/05/26 01:41:05;;;;;;;5.30;4.80;;;9.40;99.90;;;;;;5087419;28;20198;-46
2021/05/26 01:43:35;;;;;;;5.23;4.73;;;9.40;99.90;;;;;;5087714;28;20283;-49
2021/05/26 01:46:02;;;;;;;5.47;5.03;;;9.40;99.90;;;;;;5107557;28;20246;-49
2021/05/26 01:48:32;;;;;;;6.47;5.30;;;9.40;99.90;;;;;;5102962;28;20231;-45
2021/05/26 01:50:58;;;;;;;5.00;4.60;;;9.40;99.90;;;;;;5086642;28;20244;-46
2021/05/26 01:53:26;;;;;;;5.70;5.07;;;9.40;99.90;;;;;;5083895;28;20217;-47
2021/05/26 01:55:54;;;;;;;5.57;5.07;;;9.40;99.90;;;;;;5084676;28;20220;-45
2021/05/26 01:58:21;;;;;;;6.40;5.63;;;9.40;99.90;;;;;;5084076;28;20186;-48
2021/05/26 02:00:50;;;;;;;6.20;5.60;;;9.50;99.90;;;;;;5083775;28;20190;-45
2021/05/26 02:03:16;;;;;;;6.97;6.37;;;9.50;99.90;;;;;;5083620;28;20205;-47
2021/05/26 02:05:43;;;;;;;7.97;6.60;;;9.50;99.90;;;;;;5069674;28;20298;-45
2021/05/26 02:08:10;;;;;;;7.60;7.00;;;9.50;99.90;;;;;;5085988;28;20235;-44
2021/05/26 02:13:22;;;;;;;8.33;7.53;;;9.40;99.90;;;;;;5083839;28;20627;-45
2021/05/26 02:15:53;;;;;;;8.27;7.47;;;9.50;99.90;;;;;;5084374;28;20224;-45
2021/05/26 02:18:21;;;;;;;8.43;7.20;;;9.50;99.90;;;;;;5082879;28;20648;-46
2021/05/26 02:20:47;;;;;;;9.30;7.93;;;9.50;99.90;;;;;;5082330;28;21041;-51
2021/05/26 02:23:13;;;;;;;9.23;7.67;;;9.50;99.90;;;;;;5068849;28;20785;-45
2021/05/26 02:25:41;;;;;;;8.67;7.87;;;9.50;99.90;;;;;;5082047;28;20571;-46
2021/05/26 02:28:07;;;;;;;8.97;8.20;;;9.50;99.90;;;;;;5084563;28;20190;-47
2021/05/26 02:30:34;;;;;;;9.40;8.50;;;9.50;99.90;;;;;;5080314;28;20952;-45
2021/05/26 02:33:01;;;;;;;10.43;8.73;;;9.50;99.90;;;;;;5083818;28;20705;-44
2021/05/26 02:35:31;;;;;;;9.50;8.50;;;9.50;99.90;;;;;;5083057;28;20210;-45
2021/05/26 02:37:57;;;;;;;8.87;8.00;;;9.50;99.90;;;;;;5075930;28;20240;-44
2021/05/26 02:40:24;;;;;;;9.13;8.33;;;9.60;99.90;;;;;;5084192;28;20194;-45
2021/05/26 02:42:52;;;;;;;8.90;8.10;;;9.60;99.90;;;;;;5086609;28;20247;-45
2021/05/26 02:45:18;;;;;;;8.93;8.07;;;9.60;99.90;;;;;;5085132;28;20304;-47
2021/05/26 02:47:47;;;;;;;9.17;8.37;;;9.60;99.90;;;;;;5085224;28;20970;-47
2021/05/26 02:50:17;;;;;;;9.37;8.40;;;9.60;99.90;;;;;;5085997;28;20672;-44
2021/05/26 02:52:45;;;;;;;10.07;8.93;;;9.60;99.90;;;;;;5073280;28;20335;-44
2021/05/26 02:55:13;;;;;;;9.80;8.93;;;9.60;99.90;;;;;;5087965;28;20782;-45
2021/05/26 02:57:48;;;;;;;10.57;9.57;;;9.60;99.90;;;;;;5084978;28;20216;-45
2021/05/26 03:00:49;;;;;;;9.83;8.77;;;9.60;99.90;;;;;;5086249;28;20280;-45
2021/05/26 03:03:28;;;;;;;9.50;8.60;;;9.60;99.90;;;;;;5083975;28;20193;-46
2021/05/26 03:05:55;;;;;;;9.57;8.67;;;9.60;99.90;;;;;;5087620;28;20269;-49
2021/05/26 03:08:22;;;;;;;9.67;8.67;;;9.60;99.90;;;;;;5072144;28;20545;-45
2021/05/26 03:10:49;;;;;;;12.90;9.53;;;9.60;99.90;;;;;;5085228;28;20190;-44
2021/05/26 03:13:34;;;;;;;11.93;9.80;;;9.60;99.90;;;;;;5076846;28;20547;-45
2021/05/26 03:16:03;;;;;;;9.57;8.63;;;9.60;99.90;;;;;;5087641;28;20309;-46
2021/05/26 03:18:30;;;;;;;9.87;8.93;;;9.60;99.90;;;;;;5083917;28;20209;-44
2021/05/26 03:20:58;;;;;;;9.70;8.70;;;9.60;99.90;;;;;;5085881;28;20719;-44
2021/05/26 03:23:33;;;;;;;8.83;7.93;;;9.60;99.90;;;;;;5067196;28;20194;-44
2021/05/26 03:26:24;;;;;;;9.73;8.57;;;9.60;99.90;;;;;;5084431;28;20226;-45
2021/05/26 03:28:50;;;;;;;9.17;7.63;;;9.60;99.90;;;;;;5084971;28;20268;-45
2021/05/26 03:31:16;;;;;;;8.83;7.77;;;9.60;99.90;;;;;;5087272;28;20194;-47
2021/05/26 03:33:43;;;;;;;7.90;7.17;;;9.60;99.90;;;;;;5085715;28;20210;-46
2021/05/26 03:36:10;;;;;;;8.23;7.37;;;9.60;99.90;;;;;;5088263;28;20300;-44
2021/05/26 03:38:37;;;;;;;8.17;7.03;;;9.70;99.90;;;;;;5070480;28;20210;-44
2021/05/26 03:41:04;;;;;;;6.87;6.37;;;9.60;99.90;;;;;;5087980;28;20259;-45
2021/05/26 03:43:31;;;;;;;6.73;6.13;;;9.60;99.90;;;;;;5084006;28;20193;-44
2021/05/26 03:45:58;;;;;;;7.17;6.47;;;9.60;99.90;;;;;;5087964;28;20220;-44
2021/05/26 03:48:25;;;;;;;9.50;6.10;;;9.60;99.90;;;;;;5084607;28;20281;-48
2021/05/26 03:50:53;;;;;;;7.03;6.33;;;9.60;99.90;;;;;;5086782;28;20178;-45
2021/05/26 03:53:19;;;;;;;7.67;6.97;;;9.70;99.90;;;;;;5079868;28;20252;-44
2021/05/26 03:55:46;;;;;;;7.40;6.00;;;9.70;99.90;;;;;;5079889;28;20198;-44
2021/05/26 03:58:42;;;;;;;6.77;6.10;;;9.60;99.90;;;;;;5050376;28;20210;-45
2021/05/26 04:01:24;;;;;;;6.73;6.13;;;9.70;99.90;;;;;;5066282;28;20278;-45
2021/05/26 04:03:52;;;;;;;6.93;6.33;;;9.70;99.90;;;;;;5087114;28;20194;-45
2021/05/26 04:06:19;;;;;;;7.77;6.90;;;9.70;99.90;;;;;;5071910;28;20220;-45
2021/05/26 04:08:45;;;;;;;7.00;6.30;;;9.70;99.90;;;;;;5084564;28;20229;-45
2021/05/26 04:11:12;;;;;;;7.70;6.90;;;9.70;99.90;;;;;;5061722;28;20323;-46
2021/05/26 04:13:53;;;;;;;7.40;6.70;;;9.80;99.90;;;;;;5081794;28;20592;-44
2021/05/26 04:16:39;;;;;;;8.33;6.43;;;9.80;99.90;;;;;;5074616;28;20222;-45
2021/05/26 04:19:18;;;;;;;10.63;7.00;;;9.80;99.90;;;;;;5078712;28;20190;-45
2021/05/26 04:21:45;;;;;;;11.40;7.40;;;9.80;99.90;;;;;;5082054;28;20663;-45
2021/05/26 04:24:13;;;;;;;9.50;7.07;;;9.80;99.90;;;;;;5079229;28;20200;-46
2021/05/26 04:26:39;;;;;;;11.30;8.07;;;9.80;99.90;;;;;;5072975;28;20221;-45
2021/05/26 04:29:08;;;;;;;8.27;7.37;;;9.90;99.90;;;;;;5077959;28;20297;-45
2021/05/26 04:31:37;;;;;;;17.50;9.07;;;9.90;99.90;;;;;;5084124;28;20194;-45
2021/05/26 04:34:04;;;;;;;8.57;6.97;;;9.90;99.90;;;;;;5084337;28;20352;-45
2021/05/26 04:36:30;;;;;;;7.13;6.43;;;9.90;99.90;;;;;;5079424;28;20225;-44
2021/05/26 04:38:57;;;;;;;8.43;5.97;;;9.90;99.90;;;;;;5085046;28;20216;-45
2021/05/26 04:41:23;;;;;;;7.47;6.10;;;9.90;99.90;;;;;;5068525;28;20216;-44
2021/05/26 04:43:49;;;;;;;7.50;6.67;;;9.80;99.90;;;;;;5074918;28;20204;-45
2021/05/26 04:46:15;;;;;;;11.67;7.33;;;9.80;99.90;;;;;;5084684;28;20228;-44
2021/05/26 04:48:41;;;;;;;11.70;7.37;;;9.90;99.90;;;;;;5083138;28;20243;-45
2021/05/26 04:51:07;;;;;;;8.43;6.13;;;9.80;99.90;;;;;;5079268;28;20695;-44
2021/05/26 04:53:33;;;;;;;9.37;6.30;;;9.80;99.90;;;;;;5080443;28;20298;-45
2021/05/26 04:56:00;;;;;;;5.37;4.87;;;9.80;99.90;;;;;;5082137;28;20202;-44
2021/05/26 04:58:27;;;;;;;9.00;5.60;;;9.90;99.90;;;;;;5070081;28;20596;-44
2021/05/26 05:00:53;;;;;;;6.63;5.93;;;9.80;99.90;;;;;;5076106;28;20213;-45
2021/05/26 05:03:19;;;;;;;6.97;5.63;;;9.90;99.90;;;;;;5085200;28;20192;-44
2021/05/26 05:05:45;;;;;;;9.43;5.90;;;9.90;99.90;;;;;;5078388;28;20643;-46
2021/05/26 05:08:11;;;;;;;6.20;4.97;;;10.00;99.90;;;;;;5078426;28;20929;-45
2021/05/26 05:10:37;;;;;;;6.77;5.17;;;10.00;99.90;;;;;;5084533;28;20201;-44
2021/05/26 05:13:04;;;;;;;4.80;4.30;;;10.00;99.90;;;;;;5059120;28;20210;-44
2021/05/26 05:15:31;;;;;;;7.90;5.07;;;10.00;99.90;;;;;;5076436;28;20243;-49
2021/05/26 05:17:57;;;;;;;10.53;5.50;;;9.90;99.90;;;;;;5082217;28;20277;-47
2021/05/26 05:20:25;;;;;;;7.70;5.93;;;10.00;99.90;;;;;;5078200;28;20213;-48
2021/05/26 05:22:52;;;;;;;9.13;5.90;;;10.00;99.90;;;;;;5080573;28;20657;-47
2021/05/26 05:25:19;;;;;;;6.20;5.07;;;10.10;99.90;;;;;;5085414;28;20273;-45
2021/05/26 05:27:45;;;;;;;9.30;6.60;;;10.10;99.90;;;;;;5067915;28;20224;-44
2021/05/26 05:30:13;;;;;;;14.37;6.43;;;10.10;99.90;;;;;;5078236;28;20255;-46
2021/05/26 05:32:40;;;;;;;6.50;5.67;;;10.20;99.90;;;;;;5079571;28;20871;-46
2021/05/26 05:35:07;;;;;;;11.30;5.90;;;10.10;99.90;;;;;;5080813;28;20210;-45
2021/05/26 05:37:33;;;;;;;6.63;5.33;;;10.20;99.90;;;;;;5071672;28;20283;-45
2021/05/26 05:40:00;;;;;;;11.43;6.43;;;10.10;99.90;;;;;;5075101;28;20200;-46
2021/05/26 05:42:27;;;;;;;4.70;4.20;;;10.20;99.90;;;;;;5061931;28;20286;-45
2021/05/26 05:44:53;;;;;;;5.47;4.77;;;10.20;99.90;;;;;;5066420;28;20209;-44
2021/05/26 05:47:20;;;;;;;6.20;5.43;;;10.30;99.90;;;;;;5073317;28;20734;-45
2021/05/26 05:49:47;;;;;;;6.27;5.17;;;10.40;99.90;;;;;;5073913;28;20193;-48
2021/05/26 05:52:13;;;;;;;6.23;5.63;;;10.40;99.90;;;;;;5078934;28;20205;-47
2021/05/26 05:54:40;;;;;;;6.73;4.70;;;10.40;99.90;;;;;;5075742;28;20229;-46
2021/05/26 05:57:07;;;;;;;6.53;3.87;;;10.40;99.90;;;;;;5083836;28;20222;-45
2021/05/26 05:59:34;;;;;;;8.70;5.00;;;10.40;99.90;;;;;;5066798;28;21136;-44
2021/05/26 06:02:00;;;;;;;6.30;4.87;;;10.40;99.90;;;;;;5080778;28;20307;-50
2021/05/26 06:04:28;;;;;;;4.70;4.17;;;10.50;99.90;;;;;;5075237;28;20182;-46
2021/05/26 06:06:54;;;;;;;7.57;5.53;;;10.60;99.90;;;;;;5079469;28;20232;-45
2021/05/26 06:09:21;;;;;;;7.67;5.33;;;10.70;99.90;;;;;;5075890;28;20540;-44
2021/05/26 06:11:47;;;;;;;6.50;4.30;;;10.80;99.90;;;;;;5083373;28;20905;-46
2021/05/26 06:14:14;;;;;;;8.10;6.23;;;10.80;99.90;;;;;;5080655;28;20237;-46
2021/05/26 06:16:40;;;;;;;7.07;5.37;;;10.70;99.90;;;;;;5069387;28;20399;-46
2021/05/26 06:19:07;;;;;;;6.07;3.93;;;10.80;99.90;;;;;;5063916;28;20194;-47
2021/05/26 06:21:34;;;;;;;5.00;4.50;;;10.80;99.90;;;;;;5088771;28;20210;-46
2021/05/26 06:24:01;;;;;;;6.50;4.80;;;10.80;99.90;;;;;;5074596;28;20980;-47
2021/05/26 06:26:31;;;;;;;5.40;4.13;;;10.90;99.90;;;;;;5087593;28;20687;-47
2021/05/26 06:28:57;;;;;;;5.47;4.90;;;10.90;99.90;;;;;;5081718;28;20614;-46
2021/05/26 06:31:23;;;;;;;7.83;6.70;;;10.90;99.90;;;;;;5071137;28;20202;-47
2021/05/26 06:33:50;;;;;;;4.70;4.30;;;10.90;99.90;;;;;;5086317;28;20290;-46
2021/05/26 06:36:16;;;;;;;5.37;4.87;;;10.90;99.90;;;;;;5081043;28;20222;-47
2021/05/26 06:38:43;;;;;;;6.40;4.90;;;10.90;99.90;;;;;;5073239;28;20198;-47
2021/05/26 06:41:10;;;;;;;5.30;4.80;;;11.00;99.90;;;;;;5082886;28;20198;-46
2021/05/26 06:43:36;;;;;;;5.13;4.60;;;11.10;99.90;;;;;;5084249;28;20365;-47
2021/05/26 06:46:03;;;;;;;5.43;4.87;;;11.10;99.90;;;;;;5070923;28;20229;-49
2021/05/26 06:48:29;;;;;;;6.57;5.17;;;11.10;99.90;;;;;;5082668;28;20202;-47
2021/05/26 06:50:55;;;;;;;6.17;4.67;;;11.10;99.90;;;;;;5082033;28;20285;-46
2021/05/26 06:53:21;;;;;;;5.80;5.23;;;11.10;99.90;;;;;;5113192;27;20198;-48
2021/05/26 06:55:48;;;;;;;5.83;5.33;;;11.10;99.90;;;;;;5071219;28;20206;-46
2021/05/26 06:58:15;;;;;;;5.73;5.23;;;11.00;99.90;;;;;;5084675;28;20715;-45
2021/05/26 07:00:41;;;;;;;10.80;7.00;;;11.00;99.90;;;;;;5084439;28;20182;-47
2021/05/26 07:03:07;;;;;;;6.50;5.40;;;11.10;99.90;;;;;;5073333;28;20202;-48
2021/05/26 07:05:33;;;;;;;7.13;5.73;;;11.20;99.90;;;;;;5078643;28;20202;-46
2021/05/26 07:07:59;;;;;;;6.77;5.87;;;11.30;99.90;;;;;;5084956;28;20202;-46
2021/05/26 07:10:26;;;;;;;6.43;5.87;;;11.30;99.90;;;;;;5074329;28;20205;-46
2021/05/26 07:12:53;;;;;;;6.60;5.90;;;11.40;99.90;;;;;;5084656;28;20202;-49
2021/05/26 07:15:20;;;;;;;7.30;5.17;;;11.50;99.90;;;;;;5081320;28;20210;-47
2021/05/26 07:17:47;;;;;;;6.77;6.10;;;11.50;99.90;;;;;;5064146;28;20221;-45
2021/05/26 07:20:14;;;;;;;9.07;5.70;;;11.50;99.90;;;;;;5083492;28;20194;-46
2021/05/26 07:22:40;;;;;;;5.07;4.10;;;11.60;99.90;;;;;;5077842;28;20206;-46
2021/05/26 07:25:08;;;;;;;5.00;4.60;;;11.60;99.90;;;;;;5072663;28;20201;-45
2021/05/26 07:27:35;;;;;;;7.00;4.90;;;11.60;99.90;;;;;;5079492;28;20241;-47
2021/05/26 07:30:02;;;;;;;3.33;3.03;;;11.60;99.90;;;;;;5076606;28;20203;-52
2021/05/26 07:32:29;;;;;;;3.30;2.97;;;11.50;99.90;;;;;;5077741;28;20210;-48
2021/05/26 07:34:55;;;;;;;2.97;2.70;;;11.60;99.90;;;;;;5072541;28;20218;-50
2021/05/26 07:37:21;;;;;;;2.50;2.30;;;11.70;99.90;;;;;;5078507;28;20221;-47
2021/05/26 07:39:47;;;;;;;5.73;2.60;;;11.70;99.90;;;;;;5081483;28;20241;-49
2021/05/26 07:42:15;;;;;;;5.60;3.00;;;11.70;99.90;;;;;;5078059;28;20198;-51
2021/05/26 07:44:41;;;;;;;2.57;2.37;;;11.90;99.90;;;;;;5077424;28;20198;-48
2021/05/26 07:47:08;;;;;;;1.87;1.77;;;11.90;99.90;;;;;;5078022;28;20225;-52
2021/05/26 07:49:34;;;;;;;3.10;2.83;;;11.90;99.90;;;;;;5072812;28;20263;-50
2021/05/26 07:52:05;;;;;;;3.20;2.83;;;11.90;99.90;;;;;;5081360;28;20189;-51
2021/05/26 07:54:32;;;;;;;8.00;2.70;;;11.90;99.90;;;;;;5075282;28;20879;-47
2021/05/26 07:56:59;;;;;;;3.07;2.50;;;11.70;99.90;;;;;;5079787;28;20263;-52
2021/05/26 07:59:26;;;;;;;2.97;2.77;;;11.50;99.90;;;;;;5078433;28;20194;-51
2021/05/26 08:01:53;;;;;;;5.87;2.40;;;11.50;99.90;;;;;;5082129;28;20283;-51
2021/05/26 08:04:20;;;;;;;3.50;2.70;;;11.40;99.90;;;;;;5068325;28;20210;-47
2021/05/26 08:06:47;;;;;;;3.47;2.80;;;11.30;99.90;;;;;;5075430;28;20310;-49
2021/05/26 08:09:13;;;;;;;3.30;3.07;;;11.30;99.90;;;;;;5077421;28;20202;-49
2021/05/26 08:11:39;;;;;;;3.50;3.20;;;11.20;99.90;;;;;;5081473;28;20218;-47
2021/05/26 08:14:06;;;;;;;2.47;2.30;;;11.10;99.90;;;;;;5071873;28;20226;-51
2021/05/26 08:16:32;;;;;;;4.50;3.10;;;10.90;99.90;;;;;;5082294;28;20295;-47
2021/05/26 08:18:58;;;;;;;3.00;2.80;;;10.90;99.90;;;;;;5080777;28;20280;-49
2021/05/26 08:21:25;;;;;;;2.60;2.40;;;10.90;99.90;;;;;;5074337;28;20210;-46
2021/05/26 08:23:52;;;;;;;2.70;2.50;;;10.80;99.90;;;;;;5075933;28;20205;-48
2021/05/26 08:26:21;;;;;;;3.30;3.00;;;10.80;99.90;;;;;;5081831;28;20241;-51
2021/05/26 08:28:48;;;;;;;3.40;3.20;;;10.70;99.90;;;;;;5073273;28;20205;-49
2021/05/26 08:31:14;;;;;;;6.87;5.00;;;10.70;99.90;;;;;;5083640;28;20217;-49
2021/05/26 08:33:41;;;;;;;7.00;6.30;;;10.70;99.90;;;;;;5077836;28;20244;-46
2021/05/26 08:36:07;;;;;;;8.87;6.37;;;10.80;99.90;;;;;;5071410;28;20271;-46
2021/05/26 08:38:34;;;;;;;10.97;8.03;;;10.90;99.90;;;;;;5082411;28;20209;-50
2021/05/26 08:41:04;;;;;;;8.40;7.60;;;11.00;99.90;;;;;;5077800;28;20221;-51
2021/05/26 08:43:30;;;;;;;8.80;7.80;;;11.10;99.90;;;;;;5079783;28;20293;-47
2021/05/26 08:45:57;;;;;;;8.43;7.57;;;11.20;99.90;;;;;;5076704;28;20214;-51
2021/05/26 08:48:28;;;;;;;8.67;7.87;;;11.30;99.90;;;;;;5075135;28;20206;-51
2021/05/26 08:50:55;;;;;;;10.60;9.53;;;11.30;99.90;;;;;;5063683;28;20213;-49
2021/05/26 08:53:21;;;;;;;9.67;7.97;;;11.40;99.90;;;;;;5083895;28;20194;-49
2021/05/26 08:55:48;;;;;;;10.20;9.10;;;11.40;99.90;;;;;;5068945;28;20222;-51
2021/05/26 08:58:14;;;;;;;13.00;8.97;;;11.40;99.90;;;;;;5084045;28;20615;-49
2021/05/26 09:00:40;;;;;;;13.23;10.80;;;11.40;99.90;;;;;;5072302;28;20559;-53
2021/05/26 09:03:06;;;;;;;12.73;11.43;;;11.50;99.90;;;;;;5079816;28;20255;-50
2021/05/26 09:05:34;;;;;;;13.50;11.47;;;11.60;99.90;;;;;;5082538;28;20190;-51
2021/05/26 09:08:20;;;;;;;17.23;13.07;;;11.70;99.90;;;;;;5071853;28;20206;-46
2021/05/26 09:10:48;;;;;;;15.87;12.60;;;11.80;99.90;;;;;;5074236;28;20202;-47
2021/05/26 09:13:32;;;;;;;15.63;11.83;;;11.90;99.90;;;;;;5074934;28;20210;-47
2021/05/26 09:15:59;;;;;;;19.03;13.07;;;11.90;99.90;;;;;;5077978;28;20284;-46
2021/05/26 09:18:25;;;;;;;14.23;10.60;;;11.90;99.90;;;;;;5078095;28;20210;-50
2021/05/26 09:20:52;;;;;;;13.13;11.40;;;11.90;99.90;;;;;;5074610;28;20326;-51
2021/05/26 09:23:19;;;;;;;15.97;10.77;;;12.10;99.90;;;;;;5072447;28;20214;-47
2021/05/26 09:25:55;;;;;;;11.90;9.50;;;12.20;99.90;;;;;;5074429;28;20837;-47
2021/05/26 09:28:24;;;;;;;13.20;9.60;;;12.40;99.90;;;;;;5080793;28;20214;-49
2021/05/26 09:30:53;;;;;;;9.53;8.40;;;12.50;99.90;;;;;;5068053;28;20195;-48
2021/05/26 09:33:38;;;;;;;8.30;7.50;;;12.60;99.90;;;;;;5069769;28;20566;-47
2021/05/26 09:36:12;;;;;;;7.50;6.50;;;12.70;99.90;;;;;;5079178;28;20241;-48
2021/05/26 09:38:39;;;;;;;13.17;8.37;;;12.70;99.90;;;;;;5070963;28;20205;-50
2021/05/26 09:41:25;;;;;;;10.97;7.83;;;12.70;99.90;;;;;;5080080;28;20205;-47
2021/05/26 09:43:53;;;;;;;8.67;6.73;;;12.70;99.90;;;;;;5077860;28;20488;-49
2021/05/26 09:46:21;;;;;;;7.43;6.67;;;12.70;99.90;;;;;;5080822;28;20232;-48
2021/05/26 09:49:16;;;;;;;7.33;6.63;;;12.70;99.90;;;;;;5074710;28;20206;-50
2021/05/26 09:51:44;;;;;;;11.43;6.90;;;12.70;99.90;;;;;;5029981;28;20213;-50
2021/05/26 09:54:16;;;;;;;8.07;6.03;;;12.80;99.90;;;;;;5074352;28;20259;-47
2021/05/26 09:56:44;;;;;;;10.43;6.17;;;12.90;99.90;;;;;;5077021;28;20230;-50
2021/05/26 09:59:11;;;;;;;9.20;5.10;;;12.90;99.90;;;;;;5081044;28;20568;-48
2021/05/26 10:01:38;;;;;;;7.80;5.30;;;12.90;99.90;;;;;;5078743;28;20212;-47
2021/05/26 10:04:05;;;;;;;7.17;6.47;;;13.10;99.90;;;;;;5081060;28;20206;-47
2021/05/26 10:06:32;;;;;;;6.03;5.40;;;13.20;99.90;;;;;;5077196;28;20694;-50
2021/05/26 10:09:20;;;;;;;9.10;5.40;;;13.20;99.90;;;;;;5066498;28;20217;-46
2021/05/26 10:12:20;;;;;;;6.20;5.60;;;13.20;99.90;;;;;;5064706;28;20210;-47
2021/05/26 10:14:48;;;;;;;9.97;5.00;;;13.00;99.90;;;;;;5076327;28;20213;-46
2021/05/26 10:17:19;;;;;;;6.07;5.47;;;13.00;99.90;;;;;;5081459;28;20540;-46
2021/05/26 10:19:48;;;;;;;10.73;5.20;;;13.10;99.90;;;;;;5077456;28;20814;-48
2021/05/26 10:22:15;;;;;;;5.80;5.20;;;13.20;99.90;;;;;;5079113;28;20277;-47
2021/05/26 10:24:45;;;;;;;6.27;5.40;;;13.30;99.90;;;;;;5071151;28;20217;-50
2021/05/26 10:27:11;;;;;;;14.53;6.10;;;13.30;99.90;;;;;;5081000;28;20225;-51
2021/05/26 10:29:44;;;;;;;6.47;5.10;;;13.50;99.90;;;;;;5078349;28;20570;-50
2021/05/26 10:32:25;;;;;;;7.77;5.33;;;13.50;99.90;;;;;;5064325;28;20221;-50
2021/05/26 10:35:06;;;;;;;6.30;5.13;;;13.60;99.90;;;;;;5072765;28;20222;-50
2021/05/26 10:37:38;;;;;;;8.53;5.10;;;13.50;99.90;;;;;;5080747;28;20222;-52
2021/05/26 10:40:36;;;;;;;6.33;4.07;;;13.30;99.90;;;;;;5071656;28;20218;-47
2021/05/26 10:43:30;;;;;;;5.83;4.53;;;13.10;99.90;;;;;;5081640;28;20198;-46
2021/05/26 10:46:02;;;;;;;7.77;4.60;;;12.90;99.90;;;;;;5070912;28;20218;-46
2021/05/26 10:48:52;;;;;;;5.87;4.17;;;12.70;99.90;;;;;;5081874;28;20625;-50
2021/05/26 10:51:18;;;;;;;5.33;4.40;;;12.50;99.90;;;;;;5066160;28;20198;-45
2021/05/26 10:53:45;;;;;;;6.07;5.10;;;12.10;99.90;;;;;;5076091;28;20266;-46
2021/05/26 10:56:36;;;;;;;5.33;2.67;;;11.80;99.90;;;;;;5073765;28;20235;-47
2021/05/26 10:59:13;;;;;;;4.20;1.70;;;11.50;99.90;;;;;;5085426;28;20280;-46
2021/05/26 11:02:08;;;;;;;1.80;1.50;;;11.30;99.90;;;;;;5080828;28;20204;-51
2021/05/26 11:04:36;;;;;;;1.70;1.57;;;11.20;99.90;;;;;;5073657;28;20272;-50
2021/05/26 11:07:18;;;;;;;2.20;1.93;;;11.30;99.90;;;;;;5073937;28;20237;-46
2021/05/26 11:09:54;;;;;;;2.67;1.97;;;11.50;99.90;;;;;;5068700;28;21057;-49
2021/05/26 11:12:20;;;;;;;3.60;2.87;;;11.80;99.90;;;;;;5078697;28;20217;-46
2021/05/26 11:14:48;;;;;;;5.30;3.70;;;11.90;99.90;;;;;;5081894;28;20232;-46
2021/05/26 11:17:39;;;;;;;5.90;4.87;;;12.00;99.90;;;;;;5082707;28;20225;-49
2021/05/26 11:20:20;;;;;;;4.80;4.40;;;12.10;99.90;;;;;;5080859;28;20198;-47
2021/05/26 11:22:46;;;;;;;5.20;4.67;;;12.00;99.90;;;;;;5077491;28;20265;-47
2021/05/26 11:25:13;;;;;;;5.70;4.37;;;12.00;99.90;;;;;;5085163;28;20205;-49
2021/05/26 11:27:55;;;;;;;4.43;4.10;;;12.00;99.90;;;;;;5070318;28;20252;-46
2021/05/26 11:30:25;;;;;;;8.40;6.00;;;12.00;99.90;;;;;;5074321;28;20251;-46
2021/05/26 11:32:52;;;;;;;7.77;4.27;;;12.10;99.90;;;;;;5074822;28;20198;-48
2021/05/26 11:35:19;;;;;;;6.97;5.13;;;12.20;99.90;;;;;;5085709;28;20221;-48
2021/05/26 11:37:45;;;;;;;4.33;3.43;;;12.20;99.90;;;;;;5073322;28;20225;-47
2021/05/26 11:40:22;;;;;;;4.20;3.80;;;12.30;99.90;;;;;;5082951;28;20224;-46
2021/05/26 11:42:48;;;;;;;10.73;6.70;;;12.30;99.90;;;;;;5067821;28;20210;-44
2021/05/26 11:45:14;;;;;;;7.30;4.73;;;12.40;99.90;;;;;;5081403;28;20254;-46
2021/05/26 11:47:44;;;;;;;5.53;3.83;;;12.50;99.90;;;;;;5078417;28;20225;-48
2021/05/26 11:50:22;;;;;;;7.00;3.50;;;12.70;99.90;;;;;;5070863;28;20533;-46
2021/05/26 11:52:50;;;;;;;3.93;3.10;;;12.80;99.90;;;;;;5072966;28;20328;-45
2021/05/26 11:55:18;;;;;;;5.77;4.67;;;13.00;99.90;;;;;;5085666;28;20214;-47
2021/05/26 11:57:47;;;;;;;2.90;2.70;;;13.20;99.90;;;;;;5064795;28;20302;-45
2021/05/26 12:00:21;;;;;;;4.40;3.00;;;13.30;99.90;;;;;;5065720;28;20285;-47
2021/05/26 12:02:58;;;;;;;3.23;2.93;;;13.40;99.90;;;;;;5071162;28;20285;-49
2021/05/26 12:05:44;;;;;;;3.70;3.40;;;13.60;99.90;;;;;;5072057;28;20284;-52
2021/05/26 12:08:15;;;;;;;2.20;2.03;;;13.70;99.90;;;;;;5063567;28;20359;-48
2021/05/26 12:10:42;;;;;;;3.20;1.97;;;13.60;99.90;;;;;;5084825;28;20235;-52
2021/05/26 12:13:08;;;;;;;1.97;1.87;;;13.40;99.90;;;;;;5068293;28;20190;-46
2021/05/26 12:15:34;;;;;;;2.47;1.73;;;13.40;99.90;;;;;;5084905;28;20236;-48
2021/05/26 12:18:01;;;;;;;2.73;1.70;;;13.40;99.90;;;;;;5082522;28;20550;-45
2021/05/26 12:20:27;;;;;;;3.33;2.43;;;13.30;99.90;;;;;;5071678;28;20198;-47
2021/05/26 12:22:57;;;;;;;3.63;2.43;;;13.30;99.90;;;;;;5075926;28;20214;-49
2021/05/26 12:25:34;;;;;;;4.10;2.00;;;13.20;99.90;;;;;;5078721;28;20190;-52
2021/05/26 12:28:01;;;;;;;3.83;2.77;;;13.20;99.90;;;;;;5076473;28;20197;-50
2021/05/26 12:30:28;;;;;;;3.23;2.23;;;13.30;99.90;;;;;;5078636;28;20201;-46
2021/05/26 12:32:56;;;;;;;4.90;2.50;;;13.40;99.90;;;;;;5083993;28;20198;-48
2021/05/26 12:35:23;;;;;;;1.77;1.67;;;13.60;99.90;;;;;;5077790;28;20326;-46
2021/05/26 12:37:51;;;;;;;2.93;2.60;;;13.80;99.90;;;;;;5085159;28;20218;-49
2021/05/26 12:40:30;;;;;;;3.57;2.30;;;14.00;99.90;;;;;;5070060;28;20904;-47
2021/05/26 12:42:58;;;;;;;2.40;2.20;;;14.10;99.90;;;;;;5077040;28;20236;-48
2021/05/26 12:45:27;;;;;;;3.93;1.90;;;14.40;99.90;;;;;;5074909;28;20259;-47
2021/05/26 12:47:54;;;;;;;4.10;2.20;;;14.50;99.90;;;;;;5083527;28;20206;-47
2021/05/26 12:50:23;;;;;;;3.40;3.20;;;14.70;99.90;;;;;;5078697;28;20186;-49
2021/05/26 12:52:52;;;;;;;2.83;2.20;;;15.00;99.90;;;;;;5079712;28;20213;-50
2021/05/26 12:55:23;;;;;;;3.23;3.03;;;15.00;99.90;;;;;;5070128;28;20338;-47
2021/05/26 12:57:50;;;;;;;3.03;2.83;;;15.40;99.90;;;;;;5084017;28;20602;-48
2021/05/26 13:00:21;;;;;;;3.27;2.20;;;15.60;99.90;;;;;;5069210;28;20214;-45
2021/05/26 13:02:49;;;;;;;3.10;2.80;;;15.60;99.90;;;;;;5085189;28;20200;-48